sensor_id;sensor_type;location;lat;lon;timestamp;temperature;humidity
39453;DHT22;25154;-33.684;151.102;2023-03-21T00:00:11;21.10;99.90
39453;DHT22;25154;-33.684;151.102;2023-03-21T00:05:14;20.90;99.90
39453;DHT22;25154;-33.684;151.102;2023-03-21T00:10:17;20.70;99.90
39453;DHT22;25154;-33.684;151.102;2023-03-21T00:15:20;20.60;99.90
39453;DHT22;25154;-33.684;151.102;2023-03-21T00:20:23;20.50;99.90
39453;DHT22;25154;-33.684;151.102;2023-03-21T00:25:25;20.50;99.90
39453;DHT22;25154;-33.684;151.102;2023-03-21T00:30:28;20.80;99.90
39453;DHT22;25154;-33.684;151.102;2023-03-21T00:35:31;20.90;99.90
39453;DHT22;25154;-33.684;151.102;2023-03-21T00:40:34;21.10;99.90
39453;DHT22;25154;-33.684;151.102;2023-03-21T00:45:37;21.50;99.90
39453;DHT22;25154;-33.684;151.102;2023-03-21T00:50:40;21.90;99.90
39453;DHT22;25154;-33.684;151.102;2023-03-21T00:55:46;22.30;99.90
39453;DHT22;25154;-33.684;151.102;2023-03-21T01:00:49;22.20;99.90
39453;DHT22;25154;-33.684;151.102;2023-03-21T01:05:53;22.30;99.90
39453;DHT22;25154;-33.684;151.102;2023-03-21T01:11:11;22.60;99.90
39453;DHT22;25154;-33.684;151.102;2023-03-21T01:16:14;22.90;99.90
39453;DHT22;25154;-33.684;151.102;2023-03-21T01:21:17;23.20;99.90
39453;DHT22;25154;-33.684;151.102;2023-03-21T01:26:20;23.30;99.90
39453;DHT22;25154;-33.684;151.102;2023-03-21T01:31:23;23.30;99.90
39453;DHT22;25154;-33.684;151.102;2023-03-21T01:36:26;23.50;99.90
39453;DHT22;25154;-33.684;151.102;2023-03-21T01:41:38;23.40;99.90
39453;DHT22;25154;-33.684;151.102;2023-03-21T01:46:47;23.20;99.90
39453;DHT22;25154;-33.684;151.102;2023-03-21T01:51:56;23.10;99.90
39453;DHT22;25154;-33.684;151.102;2023-03-21T01:57:05;23.30;99.90
39453;DHT22;25154;-33.684;151.102;2023-03-21T02:02:14;24.40;99.90
39453;DHT22;25154;-33.684;151.102;2023-03-21T02:07:24;25.50;99.90
39453;DHT22;25154;-33.684;151.102;2023-03-21T02:12:30;25.20;99.90
39453;DHT22;25154;-33.684;151.102;2023-03-21T02:17:51;24.70;99.90
39453;DHT22;25154;-33.684;151.102;2023-03-21T02:23:09;24.70;99.90
39453;DHT22;25154;-33.684;151.102;2023-03-21T02:29:00;24.70;99.90
39453;DHT22;25154;-33.684;151.102;2023-03-21T02:34:18;24.80;99.90
39453;DHT22;25154;-33.684;151.102;2023-03-21T02:39:34;24.70;99.90
39453;DHT22;25154;-33.684;151.102;2023-03-21T02:55:26;23.50;99.90
39453;DHT22;25154;-33.684;151.102;2023-03-21T03:00:32;23.20;99.90
39453;DHT22;25154;-33.684;151.102;2023-03-21T03:05:44;22.80;99.90
39453;DHT22;25154;-33.684;151.102;2023-03-21T03:11:13;22.70;99.90
39453;DHT22;25154;-33.684;151.102;2023-03-21T03:16:37;22.70;99.90
39453;DHT22;25154;-33.684;151.102;2023-03-21T03:21:50;22.80;99.90
39453;DHT22;25154;-33.684;151.102;2023-03-21T03:32:10;22.70;99.90
39453;DHT22;25154;-33.684;151.102;2023-03-21T03:37:19;22.80;99.90
39453;DHT22;25154;-33.684;151.102;2023-03-21T03:42:34;22.90;99.90
39453;DHT22;25154;-33.684;151.102;2023-03-21T03:58:47;23.10;99.90
39453;DHT22;25154;-33.684;151.102;2023-03-21T04:03:50;23.30;99.90
39453;DHT22;25154;-33.684;151.102;2023-03-21T04:08:56;23.20;99.90
39453;DHT22;25154;-33.684;151.102;2023-03-21T04:14:03;23.00;99.90
39453;DHT22;25154;-33.684;151.102;2023-03-21T04:19:05;22.90;99.90
39453;DHT22;25154;-33.684;151.102;2023-03-21T04:24:08;22.70;99.90
39453;DHT22;25154;-33.684;151.102;2023-03-21T04:29:10;22.80;99.90
39453;DHT22;25154;-33.684;151.102;2023-03-21T04:34:13;22.70;99.90
39453;DHT22;25154;-33.684;151.102;2023-03-21T04:39:16;22.70;99.90
39453;DHT22;25154;-33.684;151.102;2023-03-21T04:44:20;22.70;99.90
39453;DHT22;25154;-33.684;151.102;2023-03-21T04:49:23;22.80;99.90
39453;DHT22;25154;-33.684;151.102;2023-03-21T04:54:25;22.70;99.90
39453;DHT22;25154;-33.684;151.102;2023-03-21T04:59:27;22.40;99.90
39453;DHT22;25154;-33.684;151.102;2023-03-21T05:04:30;22.20;99.90
39453;DHT22;25154;-33.684;151.102;2023-03-21T05:09:33;21.90;99.90
39453;DHT22;25154;-33.684;151.102;2023-03-21T05:14:35;21.50;99.90
39453;DHT22;25154;-33.684;151.102;2023-03-21T05:19:37;21.40;99.90
39453;DHT22;25154;-33.684;151.102;2023-03-21T05:29:51;21.10;99.90
39453;DHT22;25154;-33.684;151.102;2023-03-21T05:34:55;21.10;99.90
39453;DHT22;25154;-33.684;151.102;2023-03-21T05:39:57;20.80;99.90
39453;DHT22;25154;-33.684;151.102;2023-03-21T05:45:00;20.70;99.90
39453;DHT22;25154;-33.684;151.102;2023-03-21T05:50:02;20.80;99.90
39453;DHT22;25154;-33.684;151.102;2023-03-21T05:55:05;20.90;99.90
39453;DHT22;25154;-33.684;151.102;2023-03-21T06:00:08;21.00;99.90
39453;DHT22;25154;-33.684;151.102;2023-03-21T06:05:11;21.00;99.90
39453;DHT22;25154;-33.684;151.102;2023-03-21T06:10:13;21.00;99.90
39453;DHT22;25154;-33.684;151.102;2023-03-21T06:15:17;20.90;99.90
39453;DHT22;25154;-33.684;151.102;2023-03-21T06:20:20;20.60;99.90
39453;DHT22;25154;-33.684;151.102;2023-03-21T06:25:23;20.40;99.90
39453;DHT22;25154;-33.684;151.102;2023-03-21T06:30:30;20.80;99.90
39453;DHT22;25154;-33.684;151.102;2023-03-21T06:35:33;20.00;99.90
39453;DHT22;25154;-33.684;151.102;2023-03-21T06:40:38;19.60;99.90
39453;DHT22;25154;-33.684;151.102;2023-03-21T06:45:41;19.00;99.90
39453;DHT22;25154;-33.684;151.102;2023-03-21T06:50:44;18.60;99.90
39453;DHT22;25154;-33.684;151.102;2023-03-21T06:55:50;18.40;99.90
39453;DHT22;25154;-33.684;151.102;2023-03-21T07:00:53;18.30;99.90
39453;DHT22;25154;-33.684;151.102;2023-03-21T07:05:57;18.10;99.90
39453;DHT22;25154;-33.684;151.102;2023-03-21T07:11:00;18.10;99.90
39453;DHT22;25154;-33.684;151.102;2023-03-21T07:16:03;17.90;99.90
39453;DHT22;25154;-33.684;151.102;2023-03-21T07:21:06;17.90;99.90
39453;DHT22;25154;-33.684;151.102;2023-03-21T07:26:09;18.00;99.90
39453;DHT22;25154;-33.684;151.102;2023-03-21T07:31:14;18.00;99.90
39453;DHT22;25154;-33.684;151.102;2023-03-21T07:36:18;18.10;99.90
39453;DHT22;25154;-33.684;151.102;2023-03-21T07:41:20;18.50;99.90
39453;DHT22;25154;-33.684;151.102;2023-03-21T07:46:26;18.10;99.90
39453;DHT22;25154;-33.684;151.102;2023-03-21T07:51:28;18.20;99.90
39453;DHT22;25154;-33.684;151.102;2023-03-21T07:56:31;18.10;99.90
39453;DHT22;25154;-33.684;151.102;2023-03-21T08:01:34;18.10;99.90
39453;DHT22;25154;-33.684;151.102;2023-03-21T08:06:37;18.10;99.90
39453;DHT22;25154;-33.684;151.102;2023-03-21T08:11:40;17.40;99.90
39453;DHT22;25154;-33.684;151.102;2023-03-21T08:16:43;18.20;99.90
39453;DHT22;25154;-33.684;151.102;2023-03-21T08:21:46;18.10;99.90
39453;DHT22;25154;-33.684;151.102;2023-03-21T08:26:50;18.10;99.90
39453;DHT22;25154;-33.684;151.102;2023-03-21T08:31:53;18.10;99.90
39453;DHT22;25154;-33.684;151.102;2023-03-21T08:36:56;18.30;99.90
39453;DHT22;25154;-33.684;151.102;2023-03-21T08:41:59;18.10;99.90
39453;DHT22;25154;-33.684;151.102;2023-03-21T08:47:01;18.10;99.90
39453;DHT22;25154;-33.684;151.102;2023-03-21T08:52:04;18.00;99.90
39453;DHT22;25154;-33.684;151.102;2023-03-21T08:57:08;18.10;99.90
39453;DHT22;25154;-33.684;151.102;2023-03-21T09:02:14;18.10;99.90
39453;DHT22;25154;-33.684;151.102;2023-03-21T09:07:17;18.10;99.90
39453;DHT22;25154;-33.684;151.102;2023-03-21T09:12:21;18.10;99.90
39453;DHT22;25154;-33.684;151.102;2023-03-21T09:17:23;18.10;99.90
39453;DHT22;25154;-33.684;151.102;2023-03-21T09:22:29;18.10;99.90
39453;DHT22;25154;-33.684;151.102;2023-03-21T09:27:34;17.90;99.90
39453;DHT22;25154;-33.684;151.102;2023-03-21T09:32:36;18.00;99.90
39453;DHT22;25154;-33.684;151.102;2023-03-21T09:37:40;18.00;99.90
39453;DHT22;25154;-33.684;151.102;2023-03-21T09:42:55;18.10;99.90
39453;DHT22;25154;-33.684;151.102;2023-03-21T09:48:04;18.10;99.90
39453;DHT22;25154;-33.684;151.102;2023-03-21T09:58:51;18.10;99.90
39453;DHT22;25154;-33.684;151.102;2023-03-21T10:04:07;18.00;99.90
39453;DHT22;25154;-33.684;151.102;2023-03-21T10:14:24;17.90;99.90
39453;DHT22;25154;-33.684;151.102;2023-03-21T10:19:32;17.80;99.90
39453;DHT22;25154;-33.684;151.102;2023-03-21T10:24:37;17.80;99.90
39453;DHT22;25154;-33.684;151.102;2023-03-21T10:29:43;17.70;99.90
39453;DHT22;25154;-33.684;151.102;2023-03-21T10:34:51;17.60;99.90
39453;DHT22;25154;-33.684;151.102;2023-03-21T10:39:56;17.60;99.90
39453;DHT22;25154;-33.684;151.102;2023-03-21T10:44:59;17.60;99.90
39453;DHT22;25154;-33.684;151.102;2023-03-21T10:50:10;17.60;99.90
39453;DHT22;25154;-33.684;151.102;2023-03-21T10:55:34;17.70;99.90
39453;DHT22;25154;-33.684;151.102;2023-03-21T11:00:46;18.00;99.90
39453;DHT22;25154;-33.684;151.102;2023-03-21T11:05:54;18.10;99.90
39453;DHT22;25154;-33.684;151.102;2023-03-21T11:11:07;17.80;99.90
39453;DHT22;25154;-33.684;151.102;2023-03-21T11:16:24;17.80;99.90
39453;DHT22;25154;-33.684;151.102;2023-03-21T11:21:35;17.70;99.90
39453;DHT22;25154;-33.684;151.102;2023-03-21T11:26:39;17.90;99.90
39453;DHT22;25154;-33.684;151.102;2023-03-21T11:31:44;15.70;99.90
39453;DHT22;25154;-33.684;151.102;2023-03-21T11:36:56;17.90;99.90
39453;DHT22;25154;-33.684;151.102;2023-03-21T11:42:00;15.70;99.90
39453;DHT22;25154;-33.684;151.102;2023-03-21T11:47:03;18.00;99.90
39453;DHT22;25154;-33.684;151.102;2023-03-21T11:52:31;18.00;99.90
39453;DHT22;25154;-33.684;151.102;2023-03-21T11:57:54;17.90;99.90
39453;DHT22;25154;-33.684;151.102;2023-03-21T12:08:49;17.80;99.90
39453;DHT22;25154;-33.684;151.102;2023-03-21T12:24:22;17.70;99.90
39453;DHT22;25154;-33.684;151.102;2023-03-21T12:34:57;17.40;99.90
39453;DHT22;25154;-33.684;151.102;2023-03-21T12:40:11;17.30;99.90
39453;DHT22;25154;-33.684;151.102;2023-03-21T12:45:22;17.20;99.90
39453;DHT22;25154;-33.684;151.102;2023-03-21T12:50:33;17.10;99.90
39453;DHT22;25154;-33.684;151.102;2023-03-21T12:55:38;17.00;99.90
39453;DHT22;25154;-33.684;151.102;2023-03-21T13:00:54;16.90;99.90
39453;DHT22;25154;-33.684;151.102;2023-03-21T13:06:03;16.90;99.90
39453;DHT22;25154;-33.684;151.102;2023-03-21T13:11:07;17.00;99.90
39453;DHT22;25154;-33.684;151.102;2023-03-21T13:16:27;17.10;99.90
39453;DHT22;25154;-33.684;151.102;2023-03-21T13:26:46;17.10;99.90
39453;DHT22;25154;-33.684;151.102;2023-03-21T13:31:58;17.20;99.90
39453;DHT22;25154;-33.684;151.102;2023-03-21T13:37:02;17.30;99.90
39453;DHT22;25154;-33.684;151.102;2023-03-21T13:42:10;19.90;99.90
39453;DHT22;25154;-33.684;151.102;2023-03-21T13:47:39;17.40;99.90
39453;DHT22;25154;-33.684;151.102;2023-03-21T14:03:30;17.40;99.90
39453;DHT22;25154;-33.684;151.102;2023-03-21T14:08:36;17.40;99.90
39453;DHT22;25154;-33.684;151.102;2023-03-21T14:13:42;17.40;99.90
39453;DHT22;25154;-33.684;151.102;2023-03-21T14:18:55;17.40;99.90
39453;DHT22;25154;-33.684;151.102;2023-03-21T14:24:06;17.50;99.90
39453;DHT22;25154;-33.684;151.102;2023-03-21T14:29:33;17.60;99.90
39453;DHT22;25154;-33.684;151.102;2023-03-21T14:34:37;17.60;99.90
39453;DHT22;25154;-33.684;151.102;2023-03-21T14:39:43;17.60;99.90
39453;DHT22;25154;-33.684;151.102;2023-03-21T14:44:52;17.60;99.90
39453;DHT22;25154;-33.684;151.102;2023-03-21T14:49:57;17.50;99.90
39453;DHT22;25154;-33.684;151.102;2023-03-21T14:55:04;17.30;99.90
39453;DHT22;25154;-33.684;151.102;2023-03-21T15:00:25;17.30;99.90
39453;DHT22;25154;-33.684;151.102;2023-03-21T15:05:30;17.30;99.90
39453;DHT22;25154;-33.684;151.102;2023-03-21T15:10:40;17.30;99.90
39453;DHT22;25154;-33.684;151.102;2023-03-21T15:15:43;17.30;99.90
39453;DHT22;25154;-33.684;151.102;2023-03-21T15:20:48;17.20;99.90
39453;DHT22;25154;-33.684;151.102;2023-03-21T15:25:52;17.40;99.90
39453;DHT22;25154;-33.684;151.102;2023-03-21T15:30:55;17.10;99.90
39453;DHT22;25154;-33.684;151.102;2023-03-21T15:36:00;17.10;99.90
39453;DHT22;25154;-33.684;151.102;2023-03-21T15:41:24;17.00;99.90
39453;DHT22;25154;-33.684;151.102;2023-03-21T15:46:50;17.00;99.90
39453;DHT22;25154;-33.684;151.102;2023-03-21T15:57:15;17.00;99.90
39453;DHT22;25154;-33.684;151.102;2023-03-21T16:02:27;17.00;99.90
39453;DHT22;25154;-33.684;151.102;2023-03-21T16:07:33;17.00;99.90
39453;DHT22;25154;-33.684;151.102;2023-03-21T16:12:36;17.00;99.90
39453;DHT22;25154;-33.684;151.102;2023-03-21T16:17:39;16.90;99.90
39453;DHT22;25154;-33.684;151.102;2023-03-21T16:22:52;17.00;99.90
39453;DHT22;25154;-33.684;151.102;2023-03-21T16:27:55;17.00;99.90
39453;DHT22;25154;-33.684;151.102;2023-03-21T16:32:57;17.00;99.90
39453;DHT22;25154;-33.684;151.102;2023-03-21T16:38:00;17.00;99.90
39453;DHT22;25154;-33.684;151.102;2023-03-21T16:43:06;17.10;99.90
39453;DHT22;25154;-33.684;151.102;2023-03-21T16:48:10;17.10;99.90
39453;DHT22;25154;-33.684;151.102;2023-03-21T16:53:17;17.10;99.90
39453;DHT22;25154;-33.684;151.102;2023-03-21T16:58:20;17.20;99.90
39453;DHT22;25154;-33.684;151.102;2023-03-21T17:03:23;17.20;99.90
39453;DHT22;25154;-33.684;151.102;2023-03-21T17:08:25;17.20;99.90
39453;DHT22;25154;-33.684;151.102;2023-03-21T17:13:29;17.20;99.90
39453;DHT22;25154;-33.684;151.102;2023-03-21T17:18:32;17.20;99.90
39453;DHT22;25154;-33.684;151.102;2023-03-21T17:23:35;17.10;99.90
39453;DHT22;25154;-33.684;151.102;2023-03-21T17:28:38;17.10;99.90
39453;DHT22;25154;-33.684;151.102;2023-03-21T17:33:42;17.00;99.90
39453;DHT22;25154;-33.684;151.102;2023-03-21T17:38:46;17.00;99.90
39453;DHT22;25154;-33.684;151.102;2023-03-21T17:43:49;17.00;99.90
39453;DHT22;25154;-33.684;151.102;2023-03-21T17:48:53;17.10;99.90
39453;DHT22;25154;-33.684;151.102;2023-03-21T17:53:56;17.20;99.90
39453;DHT22;25154;-33.684;151.102;2023-03-21T17:59:02;17.20;99.90
39453;DHT22;25154;-33.684;151.102;2023-03-21T18:04:05;17.20;99.90
39453;DHT22;25154;-33.684;151.102;2023-03-21T18:09:09;17.10;99.90
39453;DHT22;25154;-33.684;151.102;2023-03-21T18:14:12;17.00;99.90
39453;DHT22;25154;-33.684;151.102;2023-03-21T18:19:14;16.80;99.90
39453;DHT22;25154;-33.684;151.102;2023-03-21T18:24:20;17.00;99.90
39453;DHT22;25154;-33.684;151.102;2023-03-21T18:29:23;17.00;99.90
39453;DHT22;25154;-33.684;151.102;2023-03-21T18:34:26;17.00;99.90
39453;DHT22;25154;-33.684;151.102;2023-03-21T18:39:30;17.00;99.90
39453;DHT22;25154;-33.684;151.102;2023-03-21T18:44:34;16.80;99.90
39453;DHT22;25154;-33.684;151.102;2023-03-21T18:49:38;16.80;99.90
39453;DHT22;25154;-33.684;151.102;2023-03-21T18:54:41;16.80;99.90
39453;DHT22;25154;-33.684;151.102;2023-03-21T18:59:44;16.80;99.90
39453;DHT22;25154;-33.684;151.102;2023-03-21T19:04:47;16.90;99.90
39453;DHT22;25154;-33.684;151.102;2023-03-21T19:09:50;16.90;99.90
39453;DHT22;25154;-33.684;151.102;2023-03-21T19:14:52;16.90;99.90
39453;DHT22;25154;-33.684;151.102;2023-03-21T19:19:55;16.80;99.90
39453;DHT22;25154;-33.684;151.102;2023-03-21T19:25:02;16.80;99.90
39453;DHT22;25154;-33.684;151.102;2023-03-21T19:30:13;16.70;99.90
39453;DHT22;25154;-33.684;151.102;2023-03-21T19:35:15;16.70;99.90
39453;DHT22;25154;-33.684;151.102;2023-03-21T19:40:18;16.70;99.90
39453;DHT22;25154;-33.684;151.102;2023-03-21T19:45:21;16.80;99.90
39453;DHT22;25154;-33.684;151.102;2023-03-21T19:50:24;16.90;99.90
39453;DHT22;25154;-33.684;151.102;2023-03-21T19:55:30;16.90;99.90
39453;DHT22;25154;-33.684;151.102;2023-03-21T20:00:34;17.00;99.90
39453;DHT22;25154;-33.684;151.102;2023-03-21T20:05:37;16.90;99.90
39453;DHT22;25154;-33.684;151.102;2023-03-21T20:10:40;17.00;99.90
39453;DHT22;25154;-33.684;151.102;2023-03-21T20:15:44;17.10;99.90
39453;DHT22;25154;-33.684;151.102;2023-03-21T20:20:47;17.10;99.90
39453;DHT22;25154;-33.684;151.102;2023-03-21T20:25:51;17.10;99.90
39453;DHT22;25154;-33.684;151.102;2023-03-21T20:30:56;17.10;99.90
39453;DHT22;25154;-33.684;151.102;2023-03-21T20:36:02;17.10;99.90
39453;DHT22;25154;-33.684;151.102;2023-03-21T20:41:06;17.20;99.90
39453;DHT22;25154;-33.684;151.102;2023-03-21T20:46:11;17.30;99.90
39453;DHT22;25154;-33.684;151.102;2023-03-21T20:51:14;17.30;99.90
39453;DHT22;25154;-33.684;151.102;2023-03-21T20:56:17;17.40;99.90
39453;DHT22;25154;-33.684;151.102;2023-03-21T21:01:23;17.40;99.90
39453;DHT22;25154;-33.684;151.102;2023-03-21T21:06:27;17.40;99.90
39453;DHT22;25154;-33.684;151.102;2023-03-21T21:11:30;17.40;99.90
39453;DHT22;25154;-33.684;151.102;2023-03-21T21:16:32;17.40;99.90
39453;DHT22;25154;-33.684;151.102;2023-03-21T21:21:35;21.90;99.90
39453;DHT22;25154;-33.684;151.102;2023-03-21T21:26:38;17.70;99.90
39453;DHT22;25154;-33.684;151.102;2023-03-21T21:31:48;17.90;99.90
39453;DHT22;25154;-33.684;151.102;2023-03-21T21:36:52;18.00;99.90
39453;DHT22;25154;-33.684;151.102;2023-03-21T21:41:55;18.20;99.90
39453;DHT22;25154;-33.684;151.102;2023-03-21T21:46:58;18.70;99.90
39453;DHT22;25154;-33.684;151.102;2023-03-21T21:52:00;19.10;99.90
39453;DHT22;25154;-33.684;151.102;2023-03-21T21:57:04;19.20;99.90
39453;DHT22;25154;-33.684;151.102;2023-03-21T22:02:09;19.10;99.90
39453;DHT22;25154;-33.684;151.102;2023-03-21T22:07:14;19.10;99.90
39453;DHT22;25154;-33.684;151.102;2023-03-21T22:12:17;19.10;99.90
39453;DHT22;25154;-33.684;151.102;2023-03-21T22:17:19;19.30;99.90
39453;DHT22;25154;-33.684;151.102;2023-03-21T22:22:22;19.70;99.90
39453;DHT22;25154;-33.684;151.102;2023-03-21T22:27:25;20.00;99.90
39453;DHT22;25154;-33.684;151.102;2023-03-21T22:32:28;20.50;99.90
39453;DHT22;25154;-33.684;151.102;2023-03-21T22:37:32;20.80;99.90
39453;DHT22;25154;-33.684;151.102;2023-03-21T22:42:35;21.10;99.90
39453;DHT22;25154;-33.684;151.102;2023-03-21T22:47:38;21.70;99.90
39453;DHT22;25154;-33.684;151.102;2023-03-21T22:52:41;21.90;99.90
39453;DHT22;25154;-33.684;151.102;2023-03-21T22:57:43;21.80;99.90
39453;DHT22;25154;-33.684;151.102;2023-03-21T23:02:45;22.00;99.90
39453;DHT22;25154;-33.684;151.102;2023-03-21T23:07:48;22.10;99.90
39453;DHT22;25154;-33.684;151.102;2023-03-21T23:12:50;22.30;99.90
39453;DHT22;25154;-33.684;151.102;2023-03-21T23:17:54;22.50;99.90
39453;DHT22;25154;-33.684;151.102;2023-03-21T23:22:57;22.40;99.90
39453;DHT22;25154;-33.684;151.102;2023-03-21T23:28:00;22.20;99.90
39453;DHT22;25154;-33.684;151.102;2023-03-21T23:33:03;21.90;99.90
39453;DHT22;25154;-33.684;151.102;2023-03-21T23:38:06;21.60;99.90
39453;DHT22;25154;-33.684;151.102;2023-03-21T23:43:08;22.20;99.90
39453;DHT22;25154;-33.684;151.102;2023-03-21T23:48:11;22.80;99.90
39453;DHT22;25154;-33.684;151.102;2023-03-21T23:53:15;23.00;99.90
39453;DHT22;25154;-33.684;151.102;2023-03-21T23:58:19;22.90;99.90
